Angelina County Airport
KLFK : now visible

Airfield :











YOU CAN JOIN US ON...

 
LOGIN :

Register | Disclaimer

   EN    FR    IT 

 









Legend :    VFR   Marginal VFR   IFR   Intensive IFR   Very Intensive IFR
Visi :
Ceiling :
>= 8 km
>= 3000ft
5 to 8 km
1000 to 3000 ft
1500m to 5 km
500 to 1000 ft
800 to 1500m
200 to 500 ft
< 800m
< 200 ft
Symbols :   Thunderstorms  Fog  Heavy snow  Heavy precipitations  Wind > 20 kt






- Airport Elevation : 296 ft


KLFK - Angelina County

CURRENT METAR :
  • 221353Z AUTO 09004KT 9SM FEW003 22/19 A3002 RMK AO2 SLP161 T02170194

EXPIRED METARs :
  • 221332Z AUTO 08004KT 8SM BKN004 21/19 A3001 RMK AO2 T02060189
  • 221253Z AUTO 00000KT 7SM FEW010 19/18 A3001 RMK AO2 SLP158 T01940183
  • 221153Z AUTO 07004KT 7SM CLR 18/17 A3000 RMK AO2 SLP155 T01830172 10206 20183 53001

TAF KLFK
Valid from the 22 at 14:00 until the 23 at 12:00 UTC


221348Z 2214/2312 10005KT 6SM BR BKN005
TEMPO 2214/2216 FEW005
FM221600 14007KT P6SM SCT010
FM221800 14007KT P6SM SCT040
FM230000 14005KT P6SM BKN250
FM230700 13003KT P6SM OVC015
FM230900 12003KT 6SM BR OVC007
FM231100 11002KT 4SM BR OVC003
KZHU FIR / North America



MET'MAP, your aeronautical weather chart ! - Copyright ORBIFLY December 2007 - Disclaimer

ORBIFLY MET'MAP TEAM :

Programming & Development : Alexandra Zaïnal
Concept & original design : Baudouin d'Aumeries
Assistance for programming : Marc-Olivier Méhu
Technical & hardware support : Manuel Goepfert

Contact : metmap@orbifly.com




SOURCES & CREDITS :

   NOAA       Earth
Advisory